This is the latest recevied weather packets stored in our database for station/object KB1YYC. If no packets are shown the sender has not sent any weather packets the latest 10 day(s).
| Time | Temp. | Humidity | Pressure | Rain* | Wind** | Luminosity | Snow |
|---|---|---|---|---|---|---|---|
| 1777907254 | 17.78° C | 43% | 1006.7 hPa | 0 mm | - | 735 W/m² | - |
| 1777906951 | 16.67° C | 49% | 1006.8 hPa | 0 mm | - | 753 W/m² | - |
| 1777906648 | 16.11° C | 45% | 1007 hPa | 0 mm | - | 350 W/m² | - |
| 1777906344 | 17.22° C | 43% | 1006.9 hPa | 0 mm | - | 499 W/m² | - |
| 1777906041 | 16.67° C | 45% | 1007 hPa | 0 mm | - | 704 W/m² | - |
| 1777905737 | 17.78° C | 42% | 1007.2 hPa | 0 mm | - | 536 W/m² | - |
| 1777905435 | 17.22° C | 45% | 1007.2 hPa | 0 mm | - | 621 W/m² | - |
| 1777905133 | 17.22° C | 43% | 1007.2 hPa | 0 mm | - | 633 W/m² | - |
| 1777904829 | 16.67° C | 45% | 1007.1 hPa | 0 mm | - | 663 W/m² | - |
| 1777904527 | 16.67° C | 44% | 1007.3 hPa | 0 mm | - | 648 W/m² | - |
| 1777904223 | 16.11° C | 45% | 1007.4 hPa | 0 mm | - | 641 W/m² | - |
| 1777903920 | 15.56° C | 46% | 1007.3 hPa | 0 mm | - | 635 W/m² | - |
| 1777903617 | 15.56° C | 46% | 1007.4 hPa | 0 mm | - | 586 W/m² | - |
| 1777903312 | 15° C | 48% | 1007.4 hPa | 0 mm | - | 526 W/m² | - |
| 1777903010 | 15° C | 47% | 1007.8 hPa | 0 mm | - | 207 W/m² | - |
| 1777902705 | 15° C | 49% | 1008 hPa | 0 mm | - | 561 W/m² | - |
| 1777902403 | 14.44° C | 49% | 1008 hPa | 0 mm | - | 411 W/m² | - |
| 1777902100 | 14.44° C | 50% | 1008.1 hPa | 0 mm | - | 506 W/m² | - |
| 1777901798 | 14.44° C | 50% | 1008 hPa | 0 mm | - | 339 W/m² | - |
| 1777901495 | 15° C | 49% | 1008 hPa | 0 mm | - | 523 W/m² | - |
| 1777901193 | 14.44° C | 50% | 1008.2 hPa | 0 mm | - | 548 W/m² | - |
| 1777900890 | 15° C | 52% | 1008.1 hPa | 0 mm | - | 387 W/m² | - |
| 1777900588 | 15° C | 51% | 1008.3 hPa | 0 mm | - | 528 W/m² | - |
| 1777900284 | 14.44° C | 53% | 1008.2 hPa | 0 mm | - | 527 W/m² | - |
| 1777899981 | 13.89° C | 54% | 1008.2 hPa | 0 mm | - | 514 W/m² | - |
* Rain latest hour (hover to see other rain measurements)
** Current wind speed in m/s (hover to see current wind gust speed)